Time;durP1;ratioP1;P1;durP2;ratioP2;P2;SDS_P1;SDS_P2;PMS_P1;PMS_P2;Temp;Humidity;BMP_temperature;BMP_pressure;BME280_temperature;BME280_humidity;BME280_pressure;Samples;Min_cycle;Max_cycle;Signal;HPM_P1;HPM_P2
2021/06/21 00:00:20;;;;;;;19.60;17.47;;;21.50;99.90;21.20;96122.00;;;;5097612;28;20607;-88
2021/06/21 00:03:09;;;;;;;18.77;15.17;;;21.50;99.90;20.90;96118.00;;;;5083450;28;20215;-88
2021/06/21 00:05:58;;;;;;;19.77;17.87;;;21.40;99.90;20.90;96119.00;;;;5081539;28;20195;-87
2021/06/21 00:08:49;;;;;;;18.47;16.60;;;21.30;99.90;20.90;96120.00;;;;5090056;28;20199;-86
2021/06/21 00:11:38;;;;;;;19.67;17.70;;;21.20;99.90;20.90;96118.00;;;;5078387;28;20211;-87
2021/06/21 00:14:27;;;;;;;18.93;16.83;;;21.20;99.90;20.90;96118.00;;;;5091016;28;20203;-87
2021/06/21 00:17:16;;;;;;;18.87;16.97;;;21.10;99.90;20.90;96113.00;;;;5090656;28;20192;-86
2021/06/21 00:20:07;;;;;;;17.80;16.23;;;21.10;99.90;21.00;96109.00;;;;5089393;28;20222;-87
2021/06/21 00:22:57;;;;;;;17.60;15.80;;;21.10;99.90;21.00;96105.00;;;;5091466;28;20618;-86
2021/06/21 00:25:48;;;;;;;18.37;16.37;;;21.00;99.90;21.10;96111.00;;;;5090341;28;20199;-87
2021/06/21 00:28:37;;;;;;;18.40;16.53;;;21.10;99.90;21.20;96120.00;;;;5092874;28;20207;-86
2021/06/21 00:31:26;;;;;;;18.30;16.60;;;21.10;99.90;21.20;96127.00;;;;5095344;28;20620;-88
2021/06/21 00:34:15;;;;;;;19.37;17.37;;;21.20;99.90;21.30;96125.00;;;;5094451;28;20207;-86
2021/06/21 00:37:05;;;;;;;19.67;17.77;;;21.20;99.90;21.20;96112.00;;;;5092737;28;20199;-86
2021/06/21 00:39:54;;;;;;;17.80;16.00;;;21.20;99.90;21.10;96107.00;;;;5073663;28;20227;-87
2021/06/21 00:42:47;;;;;;;17.13;15.63;;;21.20;99.90;21.00;96107.00;;;;5074149;28;20222;-86
2021/06/21 00:45:36;;;;;;;18.13;16.30;;;21.20;99.90;21.00;96103.00;;;;5073965;28;20204;-86
2021/06/21 00:48:25;;;;;;;18.03;16.33;;;21.20;99.90;21.00;96110.00;;;;5073823;28;20199;-87
2021/06/21 00:51:16;;;;;;;17.47;15.97;;;21.10;99.90;21.00;96107.00;;;;5090745;28;20462;-87
2021/06/21 00:54:05;;;;;;;20.70;17.00;;;21.10;99.90;20.90;96100.00;;;;5093349;28;20226;-87
2021/06/21 00:56:54;;;;;;;17.50;15.80;;;21.10;99.90;20.90;96098.00;;;;5093371;28;20199;-86
2021/06/21 00:59:45;;;;;;;18.30;16.60;;;21.10;99.90;20.90;96094.00;;;;5091040;28;20226;-86
2021/06/21 01:02:35;;;;;;;18.23;16.53;;;21.00;99.90;20.90;96087.00;;;;5092645;28;20309;-86
2021/06/21 01:05:26;;;;;;;18.10;16.37;;;21.00;99.90;20.70;96077.00;;;;5091796;28;20221;-87
2021/06/21 01:08:15;;;;;;;19.20;17.23;;;21.00;99.90;20.70;96079.00;;;;5093312;28;20221;-86
2021/06/21 01:11:04;;;;;;;19.07;17.37;;;20.90;99.90;20.60;96086.00;;;;5084643;28;20214;-86
2021/06/21 01:14:08;;;;;;;19.57;17.70;;;20.90;99.90;20.60;96078.00;;;;5081500;28;20212;-86
2021/06/21 01:17:08;;;;;;;18.57;16.80;;;20.80;99.90;20.60;96085.00;;;;5081463;28;20203;-88
2021/06/21 01:20:48;;;;;;;19.70;17.83;;;20.80;99.90;20.60;96081.00;;;;5093395;28;20357;-87
2021/06/21 01:24:21;;;;;;;17.97;16.27;;;20.70;99.90;20.50;96071.00;;;;5092551;28;20206;-86
2021/06/21 01:27:33;;;;;;;19.13;17.23;;;20.70;99.90;20.40;96086.00;;;;5092827;28;20199;-86
2021/06/21 01:30:28;;;;;;;20.00;17.93;;;20.70;99.90;20.20;96075.00;;;;5091620;28;20211;-86
2021/06/21 01:33:19;;;;;;;19.77;17.50;;;20.60;99.90;20.10;96079.00;;;;5093394;28;20643;-85
2021/06/21 01:36:12;;;;;;;20.87;18.63;;;20.50;99.90;20.20;96061.00;;;;5092354;28;20203;-85
2021/06/21 01:39:02;;;;;;;20.30;18.20;;;20.40;99.90;20.10;96069.00;;;;5075659;28;20203;-89
2021/06/21 01:41:56;;;;;;;19.87;17.83;;;20.40;99.90;20.00;96063.00;;;;5072845;28;20253;-85
2021/06/21 01:44:53;;;;;;;19.87;18.00;;;20.30;99.90;20.10;96072.00;;;;5082125;28;20214;-86
2021/06/21 01:47:44;;;;;;;21.43;17.60;;;20.30;99.90;20.10;96071.00;;;;5080083;28;20191;-86
2021/06/21 01:50:35;;;;;;;19.30;17.60;;;20.30;99.90;20.20;96068.00;;;;5080919;28;20204;-86
2021/06/21 01:53:26;;;;;;;18.53;16.37;;;20.20;99.90;20.20;96057.00;;;;5073485;28;20675;-87
2021/06/21 01:56:22;;;;;;;19.93;17.93;;;20.30;99.90;20.30;96058.00;;;;5072723;28;20200;-86
2021/06/21 01:59:12;;;;;;;19.10;17.47;;;20.30;99.90;20.30;96063.00;;;;5080713;28;20674;-86
2021/06/21 02:02:03;;;;;;;18.83;17.03;;;20.30;99.90;20.10;96065.00;;;;5073406;28;20224;-87
2021/06/21 02:04:56;;;;;;;19.33;17.40;;;20.30;99.90;19.90;96065.00;;;;5086046;28;20205;-86
2021/06/21 02:07:50;;;;;;;18.93;17.03;;;20.20;99.90;19.90;96050.00;;;;5078471;28;20196;-86
2021/06/21 02:10:39;;;;;;;18.57;16.17;;;20.20;99.90;19.90;96061.00;;;;5080568;28;20207;-86
2021/06/21 02:13:29;;;;;;;19.27;17.13;;;20.10;99.90;19.90;96043.00;;;;5090261;28;20200;-89
2021/06/21 02:16:19;;;;;;;21.47;17.70;;;20.10;99.90;19.90;96044.00;;;;5090638;28;20604;-86
2021/06/21 02:19:08;;;;;;;18.23;16.40;;;20.10;99.90;20.00;96049.00;;;;5091836;28;20199;-86
2021/06/21 02:21:59;;;;;;;19.07;17.17;;;20.10;99.90;20.00;96046.00;;;;5079621;28;20238;-86
2021/06/21 02:24:50;;;;;;;17.93;16.07;;;20.10;99.90;19.90;96040.00;;;;5091321;28;20207;-87
2021/06/21 02:27:40;;;;;;;18.93;16.60;;;20.10;99.90;19.90;96048.00;;;;5090674;28;20217;-88
2021/06/21 02:30:29;;;;;;;18.67;16.77;;;20.00;99.90;19.70;96044.00;;;;5090217;28;20223;-87
2021/06/21 02:33:20;;;;;;;19.40;17.50;;;20.00;99.90;19.60;96045.00;;;;5091553;28;20230;-87
2021/06/21 02:36:09;;;;;;;18.30;16.40;;;19.90;99.90;19.50;96044.00;;;;5090920;28;20568;-88
2021/06/21 02:38:59;;;;;;;19.83;16.80;;;19.90;99.90;19.50;96045.00;;;;5077069;28;20570;-86
2021/06/21 02:41:50;;;;;;;19.27;17.57;;;19.80;99.90;19.40;96036.00;;;;5090408;28;20261;-87
2021/06/21 02:44:39;;;;;;;19.47;17.57;;;19.80;99.90;19.40;96033.00;;;;5081007;28;20196;-86
2021/06/21 02:47:28;;;;;;;19.77;17.90;;;19.70;99.90;19.40;96045.00;;;;5069766;28;20200;-87
2021/06/21 02:50:18;;;;;;;19.30;17.30;;;19.70;99.90;19.40;96043.00;;;;5078345;28;20203;-88
2021/06/21 02:53:17;;;;;;;20.40;18.30;;;19.70;99.90;19.40;96039.00;;;;5077713;28;20290;-87
2021/06/21 02:56:26;;;;;;;19.43;17.60;;;19.60;99.90;19.50;96038.00;;;;5073752;28;20200;-87
2021/06/21 02:59:20;;;;;;;19.00;16.73;;;19.60;99.90;19.50;96028.00;;;;5079253;28;20232;-87
2021/06/21 03:02:12;;;;;;;21.60;19.30;;;19.60;99.90;19.20;96030.00;;;;5089805;28;20223;-88
2021/06/21 03:05:02;;;;;;;20.70;18.87;;;19.60;99.90;19.20;96024.00;;;;5074079;28;20202;-86
2021/06/21 03:07:53;;;;;;;19.60;17.70;;;19.50;99.90;19.20;96021.00;;;;5070489;28;20203;-87
2021/06/21 03:10:43;;;;;;;19.30;17.40;;;19.50;99.90;19.10;96030.00;;;;5077325;28;20203;-87
2021/06/21 03:13:33;;;;;;;20.33;18.03;;;19.40;99.90;19.10;96029.00;;;;5082314;28;20200;-86
2021/06/21 03:16:27;;;;;;;20.67;18.67;;;19.40;99.90;19.00;96026.00;;;;5086456;28;20666;-87
2021/06/21 03:19:16;;;;;;;18.20;16.40;;;19.30;99.90;19.10;96027.00;;;;5076119;28;20203;-86
2021/06/21 03:22:05;;;;;;;21.57;19.43;;;19.30;99.90;19.30;96022.00;;;;5070305;28;20600;-87
2021/06/21 03:24:55;;;;;;;19.77;17.13;;;19.30;99.90;19.40;96027.00;;;;5076289;28;20665;-87
2021/06/21 03:27:44;;;;;;;22.10;19.13;;;19.40;99.90;19.40;96030.00;;;;5090352;28;20433;-88
2021/06/21 03:30:34;;;;;;;19.93;17.80;;;19.40;99.90;19.20;96032.00;;;;5089054;28;20472;-88
2021/06/21 03:33:24;;;;;;;18.73;17.10;;;19.50;99.90;19.10;96044.00;;;;5061595;28;20253;-88
2021/06/21 03:36:13;;;;;;;18.63;16.73;;;19.40;99.90;19.20;96039.00;;;;5089248;28;20264;-87
2021/06/21 03:39:03;;;;;;;20.00;17.60;;;19.30;99.90;19.10;96040.00;;;;5087322;28;20213;-87
2021/06/21 03:41:52;;;;;;;19.87;17.93;;;19.30;99.90;19.20;96034.00;;;;5069710;28;20624;-87
2021/06/21 03:44:41;;;;;;;20.00;17.63;;;19.30;99.90;19.10;96037.00;;;;5079614;28;20205;-87
2021/06/21 03:47:30;;;;;;;18.87;16.83;;;19.30;99.90;19.00;96044.00;;;;5084075;28;20742;-87
2021/06/21 03:50:20;;;;;;;20.43;18.33;;;19.30;99.90;18.90;96043.00;;;;5084432;28;20191;-87
2021/06/21 03:53:10;;;;;;;20.00;18.00;;;19.20;99.90;19.10;96039.00;;;;5088759;28;20722;-87
2021/06/21 03:55:59;;;;;;;20.47;18.40;;;19.20;99.90;19.20;96041.00;;;;5089490;28;20195;-87
2021/06/21 03:58:51;;;;;;;21.40;17.43;;;19.30;99.90;19.20;96045.00;;;;5070576;28;20679;-87
2021/06/21 04:01:40;;;;;;;26.83;16.97;;;19.30;99.90;19.20;96041.00;;;;5068760;28;20868;-87
2021/06/21 04:04:29;;;;;;;20.50;18.50;;;19.30;99.90;19.30;96045.00;;;;5068696;28;20679;-87
2021/06/21 04:07:19;;;;;;;21.07;17.17;;;19.30;99.90;19.30;96047.00;;;;5076631;28;20565;-87
2021/06/21 04:10:11;;;;;;;20.87;18.17;;;19.30;99.90;19.20;96052.00;;;;5084639;28;20569;-87
2021/06/21 04:13:00;;;;;;;20.13;17.50;;;19.40;99.90;19.00;96052.00;;;;5086171;28;20227;-87
2021/06/21 04:15:49;;;;;;;19.73;17.90;;;19.30;99.90;19.00;96046.00;;;;5089091;28;20284;-87
2021/06/21 04:18:38;;;;;;;20.17;17.67;;;19.30;99.90;19.10;96058.00;;;;5089578;28;20203;-87
2021/06/21 04:21:28;;;;;;;20.87;18.37;;;19.30;99.90;19.10;96053.00;;;;5088076;28;20237;-87
2021/06/21 04:24:18;;;;;;;21.40;19.40;;;19.30;99.90;19.00;96053.00;;;;5083080;28;20192;-86
2021/06/21 04:27:08;;;;;;;23.60;21.13;;;19.30;99.90;19.10;96050.00;;;;5080856;28;20199;-87
2021/06/21 04:29:57;;;;;;;20.53;18.43;;;19.30;99.90;19.30;96039.00;;;;5076876;28;20219;-87
2021/06/21 04:32:47;;;;;;;21.43;19.10;;;19.30;99.90;19.30;96049.00;;;;5089425;28;20296;-87
2021/06/21 04:35:39;;;;;;;24.23;19.40;;;19.40;99.90;19.30;96036.00;;;;5086217;28;20203;-87
2021/06/21 04:38:28;;;;;;;21.10;18.83;;;19.40;99.90;19.30;96039.00;;;;5069450;28;20208;-87
2021/06/21 04:41:18;;;;;;;19.80;17.70;;;19.40;99.90;19.30;96044.00;;;;5075440;28;20231;-87
2021/06/21 04:44:07;;;;;;;20.37;18.13;;;19.40;99.90;19.40;96063.00;;;;5089092;28;20218;-87
2021/06/21 04:46:56;;;;;;;18.67;16.87;;;19.40;99.90;19.40;96053.00;;;;5085275;28;20667;-87
2021/06/21 04:49:45;;;;;;;19.87;17.93;;;19.50;99.90;19.50;96050.00;;;;5077678;28;20211;-87
2021/06/21 04:52:36;;;;;;;18.70;16.77;;;19.60;99.90;19.50;96061.00;;;;5068272;28;20258;-88
2021/06/21 04:55:25;;;;;;;21.90;18.07;;;19.60;99.90;19.70;96075.00;;;;5068624;28;20211;-87
2021/06/21 04:58:16;;;;;;;20.37;18.27;;;19.70;99.90;20.00;96065.00;;;;5069427;28;20689;-87
2021/06/21 05:01:06;;;;;;;19.33;17.47;;;19.80;99.90;20.00;96072.00;;;;5088410;28;20766;-86
2021/06/21 05:03:55;;;;;;;18.83;16.97;;;19.90;99.90;20.00;96067.00;;;;5083045;28;20242;-87
2021/06/21 05:06:45;;;;;;;21.63;18.33;;;20.00;99.90;20.20;96071.00;;;;5070293;28;20260;-87
2021/06/21 05:09:34;;;;;;;20.83;18.73;;;20.00;99.90;20.20;96068.00;;;;5076841;28;20200;-87
2021/06/21 05:12:23;;;;;;;18.77;17.07;;;20.20;99.90;20.20;96069.00;;;;5078823;28;20273;-88
2021/06/21 05:15:15;;;;;;;19.23;17.33;;;20.20;99.90;20.40;96068.00;;;;5088163;28;20411;-87
2021/06/21 05:18:04;;;;;;;19.10;17.10;;;20.30;99.90;20.40;96071.00;;;;5084940;28;20240;-87
2021/06/21 05:20:53;;;;;;;18.67;16.93;;;20.30;99.90;20.50;96072.00;;;;5085992;28;20191;-87
2021/06/21 05:23:42;;;;;;;18.93;17.13;;;20.40;99.90;20.50;96068.00;;;;5090237;28;20195;-87
2021/06/21 05:26:31;;;;;;;22.13;17.50;;;20.50;99.90;20.60;96060.00;;;;5092013;28;20199;-87
2021/06/21 05:29:20;;;;;;;21.23;18.50;;;20.60;99.90;20.70;96068.00;;;;5091508;28;20689;-88
2021/06/21 05:32:12;;;;;;;19.10;17.20;;;20.60;99.90;20.80;96068.00;;;;5092259;28;20230;-87
2021/06/21 05:35:01;;;;;;;20.83;18.37;;;20.70;99.90;21.00;96067.00;;;;5091844;28;20253;-88
2021/06/21 05:37:51;;;;;;;20.30;18.20;;;20.80;99.90;21.20;96057.00;;;;5091409;28;20372;-87
2021/06/21 05:40:40;;;;;;;22.37;17.80;;;21.00;99.90;21.50;96062.00;;;;5091707;28;20191;-88
2021/06/21 05:43:29;;;;;;;26.10;20.77;;;21.10;99.90;21.80;96064.00;;;;5078311;28;20724;-87
2021/06/21 05:46:18;;;;;;;19.80;17.70;;;21.30;99.90;22.00;96060.00;;;;5079975;28;20684;-88
2021/06/21 05:49:08;;;;;;;21.37;17.63;;;21.50;99.90;22.20;96062.00;;;;5092639;28;20259;-87
2021/06/21 05:51:57;;;;;;;19.37;17.17;;;21.70;99.90;22.20;96064.00;;;;5086624;28;20227;-87
2021/06/21 05:54:46;;;;;;;19.40;17.37;;;21.90;99.90;22.50;96057.00;;;;5091467;28;20207;-87
2021/06/21 05:57:36;;;;;;;21.17;17.13;;;22.10;99.90;22.60;96058.00;;;;5091278;28;20203;-87
2021/06/21 06:01:18;;;;;;;21.10;17.03;;;22.20;99.90;22.60;96058.00;;;;5091182;28;20200;-88
2021/06/21 06:04:10;;;;;;;19.53;17.47;;;22.30;99.90;22.80;96056.00;;;;5092048;28;20214;-87
2021/06/21 06:06:59;;;;;;;17.77;15.90;;;22.50;99.90;22.90;96063.00;;;;5089398;28;20214;-87
2021/06/21 06:09:49;;;;;;;19.17;16.37;;;22.60;99.90;22.80;96051.00;;;;5083726;28;20212;-87
2021/06/21 06:12:38;;;;;;;19.50;17.30;;;22.70;99.90;22.60;96065.00;;;;5079480;28;20613;-87
2021/06/21 06:15:27;;;;;;;18.87;15.67;;;22.70;99.90;22.80;96061.00;;;;5079785;28;20199;-88
2021/06/21 06:18:16;;;;;;;19.03;17.17;;;22.70;99.90;23.10;96063.00;;;;5088001;28;20200;-88
2021/06/21 06:21:07;;;;;;;18.70;16.70;;;22.80;99.90;23.10;96063.00;;;;5089417;28;20203;-88
2021/06/21 06:23:59;;;;;;;17.33;15.27;;;22.90;99.90;23.30;96051.00;;;;5087944;28;20234;-87
2021/06/21 06:26:48;;;;;;;20.03;16.87;;;23.00;99.90;23.50;96051.00;;;;5087855;28;20198;-87
2021/06/21 06:29:38;;;;;;;16.10;13.87;;;23.20;99.90;23.90;96041.00;;;;5089665;28;20203;-87
2021/06/21 06:32:27;;;;;;;18.50;16.63;;;23.40;99.90;24.10;96040.00;;;;5090109;28;20629;-87
2021/06/21 06:35:16;;;;;;;16.50;14.80;;;23.60;99.90;24.20;96042.00;;;;5072320;28;20207;-88
2021/06/21 06:38:07;;;;;;;16.53;13.97;;;23.70;99.90;24.50;96044.00;;;;5069978;28;20204;-87
2021/06/21 06:40:56;;;;;;;17.57;14.80;;;24.00;99.90;24.60;96044.00;;;;5070135;28;20845;-88
2021/06/21 06:43:45;;;;;;;20.10;15.10;;;24.10;99.90;24.80;96044.00;;;;5070652;28;20233;-87
2021/06/21 06:46:35;;;;;;;17.93;14.77;;;24.30;99.90;24.90;96043.00;;;;5069552;28;20675;-87
2021/06/21 06:49:24;;;;;;;16.33;14.73;;;24.40;99.90;25.00;96041.00;;;;5077244;28;20633;-87
2021/06/21 06:52:17;;;;;;;21.80;14.03;;;24.70;99.90;25.10;96039.00;;;;5088994;28;20405;-87
2021/06/21 06:58:15;;;;;;;28.67;16.23;;;24.90;99.90;25.40;96034.00;;;;5090590;28;20570;-87
2021/06/21 07:01:04;;;;;;;18.90;16.33;;;25.10;99.90;25.80;96041.00;;;;5090514;28;20197;-87
2021/06/21 07:03:54;;;;;;;17.20;15.03;;;25.20;99.90;25.80;96039.00;;;;5088775;28;20229;-87
2021/06/21 07:06:43;;;;;;;20.50;15.40;;;25.40;99.90;25.90;96036.00;;;;5088494;28;20203;-87
2021/06/21 07:09:34;;;;;;;21.23;15.17;;;25.50;99.90;26.10;96032.00;;;;5088808;28;20593;-86
2021/06/21 07:12:24;;;;;;;17.13;15.47;;;25.60;99.90;26.30;96031.00;;;;5086451;28;20223;-87
2021/06/21 07:15:15;;;;;;;19.30;15.40;;;25.80;99.90;26.50;96035.00;;;;5079588;28;20213;-86
2021/06/21 07:18:04;;;;;;;18.33;15.30;;;26.00;99.90;26.80;96026.00;;;;5084982;28;20215;-87
2021/06/21 07:20:57;;;;;;;16.70;14.47;;;26.20;99.90;26.90;96021.00;;;;5085917;28;20203;-88
2021/06/21 07:23:47;;;;;;;21.17;15.53;;;26.40;99.90;26.90;96021.00;;;;5091487;28;20230;-89
2021/06/21 07:26:39;;;;;;;16.33;14.17;;;26.50;99.90;26.90;96016.00;;;;5080492;28;20201;-88
2021/06/21 07:29:36;;;;;;;16.80;14.90;;;26.60;99.90;27.20;96017.00;;;;5094525;28;20593;-88
2021/06/21 07:32:26;;;;;;;21.23;15.67;;;26.80;99.90;27.40;96017.00;;;;5085595;28;20263;-89
2021/06/21 07:35:18;;;;;;;20.37;15.40;;;26.90;99.90;27.70;96015.00;;;;5093511;28;20211;-89
2021/06/21 07:38:09;;;;;;;20.23;14.90;;;27.10;99.90;27.80;96014.00;;;;5097932;28;20209;-90
2021/06/21 07:40:59;;;;;;;17.83;13.70;;;27.20;99.90;27.90;96012.00;;;;5078189;28;20200;-88
2021/06/21 07:43:50;;;;;;;16.43;14.60;;;27.40;99.90;28.10;96012.00;;;;5094801;28;20228;-89
2021/06/21 07:46:42;;;;;;;15.53;13.57;;;27.60;99.90;28.40;96007.00;;;;5082496;28;20195;-89
2021/06/21 07:49:36;;;;;;;18.67;13.83;;;27.70;99.90;28.60;96014.00;;;;5081982;28;20206;-89
2021/06/21 07:52:26;;;;;;;23.70;14.80;;;27.90;99.90;28.50;96007.00;;;;5086763;28;20219;-89
2021/06/21 07:55:16;;;;;;;17.60;14.07;;;28.10;99.90;28.60;96000.00;;;;5083803;28;20202;-88
2021/06/21 07:58:05;;;;;;;15.77;14.13;;;28.20;99.90;28.90;96010.00;;;;5096241;28;20200;-89
2021/06/21 08:00:55;;;;;;;16.23;13.47;;;28.30;99.90;28.90;96001.00;;;;5086468;28;20210;-88
2021/06/21 08:03:56;;;;;;;20.47;14.03;;;28.50;99.90;29.10;95998.00;;;;5082256;28;20215;-89
2021/06/21 08:06:46;;;;;;;18.77;15.13;;;28.60;99.90;29.30;95997.00;;;;5095256;28;20248;-88
2021/06/21 08:09:35;;;;;;;17.23;13.03;;;28.80;99.90;29.30;96005.00;;;;5081615;28;20197;-89
2021/06/21 08:12:24;;;;;;;14.50;13.00;;;28.80;99.90;29.60;95995.00;;;;5085453;28;20681;-89
2021/06/21 08:15:15;;;;;;;23.53;14.70;;;29.00;99.90;29.70;95990.00;;;;5094055;28;20209;-88
2021/06/21 08:18:05;;;;;;;18.88;13.20;;;29.20;99.90;29.80;95994.00;;;;5093770;28;20236;-88
2021/06/21 08:21:00;;;;;;;17.02;13.65;;;29.30;99.90;29.90;95996.00;;;;5084071;28;20210;-90
2021/06/21 08:23:50;;;;;;;16.25;14.30;;;29.40;99.90;29.70;95992.00;;;;5091473;28;20237;-89
2021/06/21 08:26:39;;;;;;;17.65;13.57;;;29.50;99.90;30.10;95999.00;;;;5079921;28;20195;-89
2021/06/21 08:29:29;;;;;;;20.10;13.18;;;29.60;99.90;30.30;95989.00;;;;5092938;28;20216;-89
2021/06/21 08:32:19;;;;;;;19.70;12.80;;;29.70;99.90;30.40;95990.00;;;;5089311;28;20222;-86
2021/06/21 08:35:10;;;;;;;20.60;11.05;;;29.90;99.90;30.50;95988.00;;;;5072867;28;20203;-86
2021/06/21 08:38:00;;;;;;;19.77;12.40;;;30.00;99.90;30.90;95986.00;;;;5074803;28;20214;-86
2021/06/21 08:40:49;;;;;;;23.98;11.43;;;30.20;99.90;31.00;95984.00;;;;5068662;28;20199;-86
2021/06/21 08:43:38;;;;;;;19.00;11.10;;;30.30;99.90;31.10;95980.00;;;;5075264;28;20230;-87
2021/06/21 08:46:27;;;;;;;19.02;11.38;;;30.40;99.90;31.00;95976.00;;;;5084488;28;20211;-86
2021/06/21 08:49:18;;;;;;;19.45;11.93;;;30.60;97.30;31.40;95977.00;;;;5084124;28;20276;-87
2021/06/21 08:52:08;;;;;;;16.60;11.85;;;30.70;97.90;31.60;95967.00;;;;5086932;28;20632;-88
2021/06/21 08:55:03;;;;;;;23.80;12.80;;;30.90;97.90;31.50;95965.00;;;;5091192;28;20205;-90
2021/06/21 08:57:52;;;;;;;19.75;11.88;;;31.00;95.60;31.40;95970.00;;;;5090189;28;20210;-87
2021/06/21 09:00:42;;;;;;;20.52;11.43;;;31.10;93.10;31.80;95972.00;;;;5072104;28;20208;-87
2021/06/21 09:03:34;;;;;;;17.42;11.32;;;31.20;92.70;31.60;95965.00;;;;5086059;28;20217;-87
2021/06/21 09:06:24;;;;;;;25.48;12.18;;;30.60;90.80;31.70;95959.00;;;;5082318;28;20580;-87
2021/06/21 09:09:13;;;;;;;23.30;12.80;;;31.40;90.90;31.80;95958.00;;;;5075594;28;20226;-88
2021/06/21 09:12:05;;;;;;;23.00;11.68;;;31.40;90.60;31.50;95958.00;;;;5084774;28;20232;-87
2021/06/21 09:14:56;;;;;;;18.65;11.70;;;31.50;90.00;32.10;95949.00;;;;5090174;28;20208;-87
2021/06/21 09:17:45;;;;;;;18.88;11.48;;;31.60;90.40;32.30;95961.00;;;;5083113;28;20249;-87
2021/06/21 09:20:34;;;;;;;16.73;11.25;;;31.70;88.80;32.50;95959.00;;;;5076848;28;20214;-87
2021/06/21 09:23:32;;;;;;;28.48;12.88;;;31.80;89.00;32.70;95953.00;;;;5087445;28;20233;-87
2021/06/21 09:26:25;;;;;;;20.10;11.20;;;32.00;88.20;32.80;95957.00;;;;5077998;28;20200;-87
2021/06/21 09:29:14;;;;;;;27.58;13.15;;;32.10;87.90;32.70;95953.00;;;;5075192;22;20235;-62
2021/06/21 09:32:47;;;;;;;15.77;11.65;;;32.20;86.70;32.90;95959.00;;;;5079244;28;20678;-63
2021/06/21 09:35:41;;;;;;;17.27;12.00;;;32.30;84.40;32.90;95951.00;;;;5077949;28;20279;-63
2021/06/21 09:38:30;;;;;;;21.50;12.52;;;32.40;85.80;33.20;95951.00;;;;5086345;28;20196;-62
2021/06/21 09:41:22;;;;;;;28.42;13.98;;;32.50;84.60;32.80;95956.00;;;;5085819;28;20223;-63
2021/06/21 09:44:32;;;;;;;26.92;12.25;;;32.60;84.00;32.90;95953.00;;;;5076556;28;20213;-63
2021/06/21 09:47:28;;;;;;;20.52;11.05;;;32.60;81.40;33.30;95945.00;;;;5077295;28;20202;-63
2021/06/21 09:50:20;;;;;;;22.20;11.10;;;32.70;81.70;33.50;95949.00;;;;5076790;28;20201;-63
2021/06/21 09:53:11;;;;;;;28.27;12.27;;;32.80;79.90;33.80;95946.00;;;;5077668;28;20922;-63
2021/06/21 09:56:00;;;;;;;21.00;10.52;;;33.00;77.70;33.60;95941.00;;;;5070581;28;20223;-63
2021/06/21 09:58:49;;;;;;;27.52;11.98;;;33.10;75.80;33.70;95944.00;;;;5087170;28;20205;-62
2021/06/21 10:01:39;;;;;;;24.52;11.55;;;33.20;73.70;34.00;95931.00;;;;5075357;28;20218;-62
2021/06/21 10:04:28;;;;;;;25.08;10.30;;;33.30;72.50;34.00;95924.00;;;;5079624;28;20227;-61
2021/06/21 10:07:30;;;;;;;23.52;10.70;;;33.50;70.40;34.30;95928.00;;;;5081524;28;20210;-61
2021/06/21 10:10:21;;;;;;;22.85;10.50;;;33.50;69.40;34.50;95925.00;;;;5073018;28;20202;-63
2021/06/21 10:13:12;;;;;;;24.92;11.40;;;33.70;69.80;34.30;95927.00;;;;5087476;28;20256;-61
2021/06/21 10:16:01;;;;;;;22.60;11.35;;;33.90;67.70;34.60;95921.00;;;;5067589;28;20203;-62
2021/06/21 10:18:51;;;;;;;22.38;9.48;;;33.90;66.00;34.80;95923.00;;;;5071910;28;20191;-63
2021/06/21 10:21:43;;;;;;;23.92;11.35;;;34.10;63.40;34.50;95920.00;;;;5065112;28;20243;-63
2021/06/21 10:24:33;;;;;;;20.27;10.23;;;34.20;63.80;34.70;95919.00;;;;5075601;28;20234;-61
2021/06/21 10:27:23;;;;;;;18.25;10.55;;;34.20;63.20;34.40;95913.00;;;;5068208;28;20219;-63
2021/06/21 10:30:16;;;;;;;23.92;10.27;;;34.10;62.10;34.20;95915.00;;;;5079865;28;20825;-63
2021/06/21 10:33:05;;;;;;;23.58;11.30;;;34.10;62.60;34.80;95910.00;;;;5069865;28;20697;-63
2021/06/21 10:36:00;;;;;;;21.67;10.98;;;34.20;63.70;34.00;95912.00;;;;5079663;28;20252;-63
2021/06/21 10:39:08;;;;;;;28.70;12.00;;;34.20;62.20;34.50;95910.00;;;;5077097;28;20195;-62
2021/06/21 10:42:23;;;;;;;28.40;12.40;;;34.30;63.10;34.30;95906.00;;;;5068061;28;20246;-61
2021/06/21 10:45:20;;;;;;;34.42;13.10;;;34.10;62.50;34.30;95906.00;;;;5067621;28;20219;-62
2021/06/21 10:48:10;;;;;;;24.25;10.75;;;34.20;63.50;35.20;95903.00;;;;5083270;28;20210;-63
2021/06/21 10:51:00;;;;;;;25.45;11.50;;;34.30;62.70;35.00;95900.00;;;;5079413;28;20482;-62
2021/06/21 10:53:54;;;;;;;25.52;10.75;;;34.40;60.40;34.00;95899.00;;;;5082201;28;20593;-62
2021/06/21 10:56:44;;;;;;;27.02;10.57;;;34.20;59.90;35.00;95895.00;;;;5077679;28;20214;-62
2021/06/21 10:59:33;;;;;;;22.92;9.57;;;34.30;61.70;35.70;95898.00;;;;5080689;28;20576;-62
2021/06/21 11:02:38;;;;;;;24.30;9.73;;;34.60;61.20;35.60;95890.00;;;;5082981;28;20705;-62
2021/06/21 11:05:37;;;;;;;19.45;9.20;;;34.80;59.80;34.30;95894.00;;;;5073584;28;20216;-63
2021/06/21 11:08:29;;;;;;;24.55;10.80;;;34.80;56.30;35.70;95879.00;;;;5075470;28;20689;-62
2021/06/21 11:11:46;;;;;;;30.17;9.13;;;34.80;57.10;36.00;95876.00;;;;5074713;28;20721;-62
2021/06/21 11:14:34;;;;;;;20.75;10.32;;;35.00;57.40;35.30;95876.00;;;;5066576;28;20211;-62
2021/06/21 11:17:24;;;;;;;22.85;9.27;;;35.20;55.80;36.20;95878.00;;;;5078919;28;20237;-62
2021/06/21 11:20:38;;;;;;;23.88;8.93;;;35.30;56.60;36.60;95868.00;;;;5080356;28;20191;-62
2021/06/21 11:23:42;;;;;;;22.63;10.20;;;35.50;54.30;35.00;95862.00;;;;5080685;28;20219;-63
2021/06/21 11:27:01;;;;;;;25.58;9.48;;;35.50;53.70;35.50;95861.00;;;;5075466;28;20214;-63
2021/06/21 11:29:53;;;;;;;22.55;10.02;;;35.40;54.00;36.10;95862.00;;;;5085110;28;20206;-63
2021/06/21 11:32:56;;;;;;;24.17;8.45;;;35.40;54.30;35.60;95857.00;;;;5077683;28;20211;-62
2021/06/21 11:36:01;;;;;;;38.53;10.90;;;35.30;53.60;35.60;95859.00;;;;5066869;28;20199;-62
2021/06/21 11:38:51;;;;;;;29.65;10.10;;;35.50;53.00;36.40;95859.00;;;;5073341;28;20222;-64
2021/06/21 11:41:53;;;;;;;22.23;10.05;;;35.70;53.30;36.90;95862.00;;;;5080857;28;20231;-61
2021/06/21 11:44:51;;;;;;;24.77;9.75;;;35.90;52.90;36.50;95855.00;;;;5079474;28;20225;-62
2021/06/21 11:47:41;;;;;;;22.00;10.07;;;35.90;52.50;36.80;95854.00;;;;5072903;28;20729;-64
2021/06/21 11:50:33;;;;;;;22.75;10.90;;;36.10;51.70;37.00;95855.00;;;;5077127;28;20199;-63
2021/06/21 11:53:25;;;;;;;26.15;9.65;;;36.20;54.70;37.50;95843.00;;;;5078406;28;20188;-61
2021/06/21 11:56:18;;;;;;;24.25;10.40;;;36.50;53.20;37.20;95840.00;;;;5068399;28;20685;-62
2021/06/21 11:59:06;;;;;;;27.38;10.40;;;36.80;52.20;37.70;95857.00;;;;5086179;28;20202;-61
2021/06/21 12:02:01;;;;;;;23.17;9.70;;;36.90;52.20;37.30;95844.00;;;;5075565;28;20256;-62
2021/06/21 12:04:53;;;;;;;26.27;9.93;;;37.00;52.20;37.00;95850.00;;;;5072475;28;20233;-64
2021/06/21 12:07:44;;;;;;;19.90;8.90;;;36.80;51.60;37.70;95846.00;;;;5082634;28;20207;-63
2021/06/21 12:10:33;;;;;;;20.38;9.25;;;36.80;51.90;37.10;95841.00;;;;5079350;28;20669;-63
2021/06/21 12:13:25;;;;;;;28.50;8.98;;;36.80;50.90;36.90;95849.00;;;;5078596;28;20199;-63
2021/06/21 12:16:17;;;;;;;18.40;7.97;;;36.80;51.60;37.10;95835.00;;;;5066009;28;20211;-63
2021/06/21 12:19:06;;;;;;;20.60;8.35;;;36.90;51.30;36.40;95850.00;;;;5072978;28;20199;-63
2021/06/21 12:21:55;;;;;;;24.88;8.40;;;36.60;51.50;36.50;95834.00;;;;5082564;28;20661;-63
2021/06/21 12:24:44;;;;;;;28.33;10.30;;;36.40;52.30;37.90;95845.00;;;;5081395;28;20207;-63
2021/06/21 12:27:33;;;;;;;24.38;9.35;;;36.70;52.40;36.90;95831.00;;;;5078285;28;20203;-62
2021/06/21 12:30:37;;;;;;;26.23;9.25;;;36.80;50.80;38.30;95826.00;;;;5083078;28;20207;-60